createdAt,value
2023-05-08T00:01:58.463Z,9.50
2023-05-08T00:04:27.770Z,9.53
2023-05-08T00:07:15.164Z,9.58
2023-05-08T00:10:04.332Z,9.36
2023-05-08T00:12:33.531Z,9.68
2023-05-08T00:15:03.994Z,9.78
2023-05-08T00:17:33.533Z,9.82
2023-05-08T00:20:21.024Z,9.53
2023-05-08T00:22:50.119Z,9.59
2023-05-08T00:25:56.158Z,10.27
2023-05-08T00:28:27.839Z,10.13
2023-05-08T00:30:57.058Z,10.48
2023-05-08T00:33:26.201Z,10.53
2023-05-08T00:36:01.790Z,10.50
2023-05-08T00:38:52.273Z,10.43
2023-05-08T00:41:21.488Z,10.78
2023-05-08T00:43:52.141Z,10.92
2023-05-08T00:46:22.217Z,10.84
2023-05-08T00:48:51.962Z,11.15
2023-05-08T00:51:21.484Z,10.50
2023-05-08T00:54:09.011Z,10.86
2023-05-08T00:56:56.754Z,11.40
2023-05-08T00:59:28.776Z,11.39
2023-05-08T01:02:16.241Z,11.57
2023-05-08T01:04:46.451Z,11.53
2023-05-08T01:07:15.827Z,11.48
2023-05-08T01:09:45.017Z,11.87
2023-05-08T01:12:36.110Z,11.63
2023-05-08T01:15:17.405Z,12.13
2023-05-08T01:17:58.422Z,11.82
2023-05-08T01:20:37.373Z,12.31
2023-05-08T01:23:44.549Z,12.23
2023-05-08T01:26:44.353Z,12.53
2023-05-08T01:29:45.844Z,12.61
2023-05-08T01:32:21.336Z,12.74
2023-05-08T01:35:12.626Z,12.92
2023-05-08T01:38:05.525Z,13.07
2023-05-08T01:40:39.300Z,13.18
2023-05-08T01:43:21.839Z,13.29
2023-05-08T01:45:54.944Z,13.47
2023-05-08T01:48:41.023Z,13.57
2023-05-08T01:51:19.544Z,13.70
2023-05-08T01:53:52.947Z,13.88
2023-05-08T01:56:25.970Z,13.96
2023-05-08T01:58:59.192Z,13.90
2023-05-08T02:01:47.913Z,14.15
